HZ102 FZIC-FZAA
Flight info
| Callsign | HZ102 |
|---|---|
| Flight time | 1h 34m |
| Altitude | 40000 |
| Route | IBRUX DCT XESIR UB535 GURUT DCT ULVAS ULVAS1B |
| Aircraft | B738/M-SDE2E3FGHIRWXY/LB1 |
Departure
| Time | 2026-04-28 18:28 |
|---|---|
| Airport | Bangoka International Airport (FZIC) |
Arrival
| Time | 2026-04-28 20:02 |
|---|---|
| Airport | Ndjili International Airport (FZAA) |
| Time | Latitude | Longitude | Altitude | Speed | Heading |
|---|---|---|---|---|---|
| 2026-04-28 18:09 | 0.49177 | 25.32933 | 1416 ft | 0 kts | 36° |
| 2026-04-28 18:20 | 0.49165 | 25.32925 | 1412 ft | 4 kts | 32° |
| 2026-04-28 18:20 | 0.49141 | 25.32913 | 1412 ft | 4 kts | 10° |
| 2026-04-28 18:20 | 0.49119 | 25.32915 | 1412 ft | 3 kts | 310° |
| 2026-04-28 18:21 | 0.49116 | 25.32919 | 1412 ft | 0 kts | 304° |
| 2026-04-28 18:24 | 0.49119 | 25.32915 | 1412 ft | 2 kts | 304° |
| 2026-04-28 18:24 | 0.49127 | 25.32902 | 1414 ft | 5 kts | 304° |
| 2026-04-28 18:24 | 0.49172 | 25.32839 | 1412 ft | 12 kts | 305° |
| 2026-04-28 18:24 | 0.49229 | 25.32758 | 1413 ft | 16 kts | 302° |
| 2026-04-28 18:25 | 0.49243 | 25.32642 | 1415 ft | 19 kts | 253° |
| 2026-04-28 18:25 | 0.49152 | 25.32551 | 1414 ft | 19 kts | 190° |
| 2026-04-28 18:25 | 0.49056 | 25.32546 | 1413 ft | 7 kts | 150° |
| 2026-04-28 18:26 | 0.49029 | 25.32580 | 1413 ft | 0 kts | 126° |
| 2026-04-28 18:27 | 0.48949 | 25.32693 | 1415 ft | 52 kts | 125° |
| 2026-04-28 18:27 | 0.48603 | 25.33183 | 1416 ft | 118 kts | 125° |
| 2026-04-28 18:27 | 0.48033 | 25.33988 | 1489 ft | 161 kts | 127° |
| 2026-04-28 18:28 | 0.47346 | 25.34916 | 2083 ft | 168 kts | 128° |
| 2026-04-28 18:28 | 0.46705 | 25.35861 | 2828 ft | 167 kts | 126° |
| 2026-04-28 18:28 | 0.46050 | 25.36844 | 3411 ft | 178 kts | 125° |
| 2026-04-28 18:28 | 0.45276 | 25.37938 | 3681 ft | 207 kts | 126° |
| 2026-04-28 18:29 | 0.44387 | 25.39178 | 3879 ft | 231 kts | 126° |
| 2026-04-28 18:29 | 0.43213 | 25.40395 | 4046 ft | 254 kts | 151° |
| 2026-04-28 18:29 | 0.41472 | 25.40757 | 4437 ft | 269 kts | 185° |
| 2026-04-28 18:29 | 0.39684 | 25.40144 | 5156 ft | 272 kts | 214° |
| 2026-04-28 18:30 | 0.38459 | 25.38730 | 5915 ft | 279 kts | 246° |
| 2026-04-28 18:30 | 0.38048 | 25.37499 | 6594 ft | 277 kts | 251° |
| 2026-04-28 18:30 | 0.37223 | 25.35037 | 7517 ft | 287 kts | 253° |
| 2026-04-28 18:30 | 0.36728 | 25.33079 | 8194 ft | 294 kts | 255° |
| 2026-04-28 18:31 | 0.36154 | 25.31097 | 8913 ft | 299 kts | 252° |
| 2026-04-28 18:31 | 0.35515 | 25.29100 | 9608 ft | 305 kts | 251° |
| 2026-04-28 18:31 | 0.34855 | 25.27069 | 10309 ft | 312 kts | 251° |
| 2026-04-28 18:31 | 0.34160 | 25.24924 | 10524 ft | 336 kts | 252° |
| 2026-04-28 18:32 | 0.33422 | 25.22627 | 10695 ft | 359 kts | 252° |
| 2026-04-28 18:32 | 0.32645 | 25.20186 | 10870 ft | 377 kts | 252° |
| 2026-04-28 18:32 | 0.31841 | 25.17652 | 11291 ft | 386 kts | 252° |
| 2026-04-28 18:32 | 0.31037 | 25.15078 | 11932 ft | 389 kts | 252° |
| 2026-04-28 18:33 | 0.30217 | 25.12488 | 12562 ft | 392 kts | 252° |
| 2026-04-28 18:33 | 0.29390 | 25.09876 | 13156 ft | 397 kts | 252° |
| 2026-04-28 18:33 | 0.28557 | 25.07233 | 13804 ft | 400 kts | 252° |
| 2026-04-28 18:33 | 0.27730 | 25.04581 | 14435 ft | 402 kts | 252° |
| 2026-04-28 18:34 | 0.26895 | 25.01895 | 15067 ft | 407 kts | 252° |
| 2026-04-28 18:34 | 0.26043 | 24.99194 | 15714 ft | 409 kts | 252° |
| 2026-04-28 18:34 | 0.25182 | 24.96469 | 16325 ft | 413 kts | 252° |
| 2026-04-28 18:34 | 0.24314 | 24.93726 | 16918 ft | 416 kts | 252° |
| 2026-04-28 18:35 | 0.23434 | 24.90955 | 17498 ft | 419 kts | 251° |
| 2026-04-28 18:35 | 0.22553 | 24.88165 | 18055 ft | 422 kts | 251° |
| 2026-04-28 18:35 | 0.21671 | 24.85358 | 18585 ft | 425 kts | 251° |
| 2026-04-28 18:35 | 0.20784 | 24.82528 | 19077 ft | 429 kts | 251° |
| 2026-04-28 18:36 | 0.19900 | 24.79712 | 19543 ft | 432 kts | 251° |
| 2026-04-28 18:36 | 0.18996 | 24.76835 | 19999 ft | 435 kts | 251° |
| 2026-04-28 18:36 | 0.18085 | 24.73938 | 20438 ft | 439 kts | 252° |
| 2026-04-28 18:36 | 0.17168 | 24.71020 | 20873 ft | 442 kts | 252° |
| 2026-04-28 18:37 | 0.16243 | 24.68081 | 21291 ft | 445 kts | 252° |
| 2026-04-28 18:37 | 0.15313 | 24.65121 | 21670 ft | 448 kts | 252° |
| 2026-04-28 18:37 | 0.14376 | 24.62142 | 22078 ft | 451 kts | 252° |
| 2026-04-28 18:37 | 0.13430 | 24.59150 | 22467 ft | 453 kts | 251° |
| 2026-04-28 18:38 | 0.12275 | 24.56216 | 22824 ft | 455 kts | 244° |
| 2026-04-28 18:38 | 0.10888 | 24.53365 | 23158 ft | 458 kts | 242° |
| 2026-04-28 18:38 | 0.09437 | 24.50526 | 23471 ft | 461 kts | 242° |
| 2026-04-28 18:38 | 0.07960 | 24.47673 | 23776 ft | 464 kts | 242° |
| 2026-04-28 18:39 | 0.06482 | 24.44802 | 24103 ft | 466 kts | 242° |
| 2026-04-28 18:39 | 0.05010 | 24.41910 | 24415 ft | 468 kts | 242° |
| 2026-04-28 18:39 | 0.03546 | 24.39002 | 24714 ft | 470 kts | 243° |
| 2026-04-28 18:39 | 0.02081 | 24.36072 | 25018 ft | 472 kts | 243° |
| 2026-04-28 18:40 | 0.00618 | 24.33136 | 25343 ft | 474 kts | 243° |
| 2026-04-28 18:40 | -0.00837 | 24.30180 | 25660 ft | 474 kts | 243° |
| 2026-04-28 18:40 | -0.02294 | 24.27213 | 25899 ft | 478 kts | 243° |
| 2026-04-28 18:40 | -0.03773 | 24.24239 | 26093 ft | 480 kts | 243° |
| 2026-04-28 18:41 | -0.05270 | 24.21245 | 26314 ft | 482 kts | 243° |
| 2026-04-28 18:41 | -0.06770 | 24.18244 | 26587 ft | 483 kts | 243° |
| 2026-04-28 18:41 | -0.08269 | 24.15238 | 26870 ft | 484 kts | 243° |
| 2026-04-28 18:41 | -0.09772 | 24.12216 | 27089 ft | 486 kts | 243° |
| 2026-04-28 18:42 | -0.11281 | 24.09186 | 27324 ft | 488 kts | 243° |
| 2026-04-28 18:42 | -0.12797 | 24.06146 | 27542 ft | 490 kts | 243° |
| 2026-04-28 18:42 | -0.14317 | 24.03095 | 27761 ft | 491 kts | 243° |
| 2026-04-28 18:42 | -0.15839 | 24.00039 | 28028 ft | 492 kts | 243° |
| 2026-04-28 18:43 | -0.17359 | 23.96983 | 28365 ft | 491 kts | 243° |
| 2026-04-28 18:43 | -0.18875 | 23.93937 | 28740 ft | 489 kts | 243° |
| 2026-04-28 18:43 | -0.20385 | 23.90899 | 29070 ft | 488 kts | 243° |
| 2026-04-28 18:43 | -0.21897 | 23.87862 | 29348 ft | 489 kts | 243° |
| 2026-04-28 18:44 | -0.23410 | 23.84820 | 29657 ft | 488 kts | 243° |
| 2026-04-28 18:44 | -0.26423 | 23.78759 | 30408 ft | 486 kts | 243° |
| 2026-04-28 18:44 | -0.27923 | 23.75741 | 30780 ft | 484 kts | 243° |
| 2026-04-28 18:45 | -0.29422 | 23.72729 | 31118 ft | 484 kts | 243° |
| 2026-04-28 18:45 | -0.30920 | 23.69718 | 31467 ft | 484 kts | 243° |
| 2026-04-28 18:45 | -0.32416 | 23.66711 | 31859 ft | 482 kts | 243° |
| 2026-04-28 18:45 | -0.33907 | 23.63715 | 32260 ft | 481 kts | 243° |
| 2026-04-28 18:46 | -0.35393 | 23.60726 | 32587 ft | 481 kts | 243° |
| 2026-04-28 18:46 | -0.36880 | 23.57735 | 32920 ft | 481 kts | 243° |
| 2026-04-28 18:46 | -0.38346 | 23.54786 | 33316 ft | 479 kts | 243° |
| 2026-04-28 18:46 | -0.39846 | 23.51770 | 33730 ft | 477 kts | 243° |
| 2026-04-28 18:47 | -0.41302 | 23.48842 | 34075 ft | 477 kts | 243° |
| 2026-04-28 18:47 | -0.42795 | 23.45839 | 34422 ft | 477 kts | 243° |
| 2026-04-28 18:47 | -0.44249 | 23.42917 | 34723 ft | 476 kts | 243° |
| 2026-04-28 18:47 | -0.45727 | 23.39951 | 34981 ft | 477 kts | 243° |
| 2026-04-28 18:48 | -0.47218 | 23.36984 | 35302 ft | 477 kts | 242° |
| 2026-04-28 18:48 | -0.48712 | 23.34033 | 35651 ft | 476 kts | 242° |
| 2026-04-28 18:48 | -0.50207 | 23.31087 | 35939 ft | 476 kts | 242° |
| 2026-04-28 18:48 | -0.51704 | 23.28135 | 36200 ft | 477 kts | 242° |
| 2026-04-28 18:49 | -0.53202 | 23.25180 | 36434 ft | 478 kts | 242° |
| 2026-04-28 18:49 | -0.53708 | 23.24180 | 36519 ft | 478 kts | 242° |
| 2026-04-28 18:49 | -0.56200 | 23.19254 | 37054 ft | 476 kts | 242° |
| 2026-04-28 18:49 | -0.57685 | 23.16315 | 37463 ft | 472 kts | 242° |
| 2026-04-28 18:50 | -0.59162 | 23.13394 | 37808 ft | 470 kts | 242° |
| 2026-04-28 18:50 | -0.60634 | 23.10481 | 38057 ft | 470 kts | 242° |
| 2026-04-28 18:50 | -0.62110 | 23.07560 | 38271 ft | 471 kts | 242° |
| 2026-04-28 18:50 | -0.63589 | 23.04637 | 38471 ft | 472 kts | 242° |
| 2026-04-28 18:51 | -0.65066 | 23.01717 | 38699 ft | 471 kts | 242° |
| 2026-04-28 18:51 | -0.66545 | 22.98793 | 38909 ft | 472 kts | 242° |
| 2026-04-28 18:51 | -0.68025 | 22.95864 | 39098 ft | 472 kts | 242° |
| 2026-04-28 18:51 | -0.69507 | 22.92932 | 39272 ft | 473 kts | 242° |
| 2026-04-28 18:52 | -0.70989 | 22.90000 | 39494 ft | 473 kts | 242° |
| 2026-04-28 18:52 | -0.72474 | 22.87064 | 39665 ft | 474 kts | 242° |
| 2026-04-28 18:52 | -0.73956 | 22.84129 | 39866 ft | 474 kts | 242° |
| 2026-04-28 18:52 | -0.75443 | 22.81188 | 39958 ft | 476 kts | 242° |
| 2026-04-28 18:53 | -0.78447 | 22.75247 | 39979 ft | 482 kts | 242° |
| 2026-04-28 18:53 | -0.81485 | 22.69234 | 39973 ft | 487 kts | 242° |
| 2026-04-28 18:54 | -0.84547 | 22.63169 | 39970 ft | 490 kts | 242° |
| 2026-04-28 18:54 | -0.87632 | 22.57069 | 39963 ft | 492 kts | 242° |
| 2026-04-28 18:55 | -0.90199 | 22.51992 | 39961 ft | 493 kts | 242° |
| 2026-04-28 18:55 | -0.93784 | 22.44896 | 39964 ft | 492 kts | 242° |
| 2026-04-28 18:56 | -0.96860 | 22.38806 | 39956 ft | 490 kts | 242° |
| 2026-04-28 18:56 | -0.99922 | 22.32736 | 39961 ft | 489 kts | 242° |
| 2026-04-28 18:57 | -1.02979 | 22.26683 | 39962 ft | 487 kts | 242° |
| 2026-04-28 18:57 | -1.06029 | 22.20643 | 39962 ft | 486 kts | 242° |
| 2026-04-28 18:58 | -1.08557 | 22.15637 | 39962 ft | 485 kts | 242° |
| 2026-04-28 18:58 | -1.11600 | 22.09616 | 39961 ft | 485 kts | 242° |
| 2026-04-28 18:59 | -1.14639 | 22.03599 | 39950 ft | 485 kts | 242° |
| 2026-04-28 18:59 | -1.17677 | 21.97581 | 39955 ft | 485 kts | 242° |
| 2026-04-28 19:00 | -1.20713 | 21.91565 | 39950 ft | 485 kts | 242° |
| 2026-04-28 19:00 | -1.23747 | 21.85555 | 39957 ft | 484 kts | 242° |
| 2026-04-28 19:01 | -1.26782 | 21.79540 | 39949 ft | 485 kts | 242° |
| 2026-04-28 19:01 | -1.29820 | 21.73523 | 39947 ft | 485 kts | 242° |
| 2026-04-28 19:02 | -1.32852 | 21.67504 | 39942 ft | 485 kts | 243° |
| 2026-04-28 19:02 | -1.35825 | 21.61450 | 39943 ft | 486 kts | 243° |
| 2026-04-28 19:03 | -1.38782 | 21.55381 | 39947 ft | 486 kts | 243° |
| 2026-04-28 19:03 | -1.41746 | 21.49307 | 39949 ft | 486 kts | 243° |
| 2026-04-28 19:04 | -1.44713 | 21.43244 | 39945 ft | 485 kts | 243° |
| 2026-04-28 19:04 | -1.47678 | 21.37187 | 39943 ft | 485 kts | 243° |
| 2026-04-28 19:05 | -1.50643 | 21.31130 | 39935 ft | 485 kts | 243° |
| 2026-04-28 19:05 | -1.53610 | 21.25070 | 39935 ft | 485 kts | 243° |
| 2026-04-28 19:06 | -1.56070 | 21.20040 | 39936 ft | 485 kts | 243° |
| 2026-04-28 19:06 | -1.59510 | 21.13002 | 39940 ft | 485 kts | 243° |
| 2026-04-28 19:07 | -1.62472 | 21.06949 | 39933 ft | 485 kts | 243° |
| 2026-04-28 19:07 | -1.65438 | 21.00892 | 39938 ft | 485 kts | 243° |
| 2026-04-28 19:08 | -1.68400 | 20.94843 | 39935 ft | 485 kts | 243° |
| 2026-04-28 19:08 | -1.71362 | 20.88787 | 39934 ft | 485 kts | 243° |
| 2026-04-28 19:09 | -1.74318 | 20.82734 | 39934 ft | 485 kts | 243° |
| 2026-04-28 19:09 | -1.77280 | 20.76681 | 39927 ft | 485 kts | 243° |
| 2026-04-28 19:10 | -1.80240 | 20.70632 | 39925 ft | 484 kts | 243° |
| 2026-04-28 19:10 | -1.83196 | 20.64586 | 39925 ft | 484 kts | 243° |
| 2026-04-28 19:11 | -1.86149 | 20.58547 | 39926 ft | 483 kts | 243° |
| 2026-04-28 19:11 | -1.89100 | 20.52509 | 39926 ft | 483 kts | 243° |
| 2026-04-28 19:12 | -1.92049 | 20.46471 | 39927 ft | 484 kts | 243° |
| 2026-04-28 19:12 | -1.94999 | 20.40435 | 39923 ft | 483 kts | 243° |
| 2026-04-28 19:13 | -1.97946 | 20.34403 | 39931 ft | 482 kts | 243° |
| 2026-04-28 19:13 | -2.00872 | 20.28419 | 39924 ft | 483 kts | 243° |
| 2026-04-28 19:14 | -2.03818 | 20.22389 | 39918 ft | 483 kts | 243° |
| 2026-04-28 19:14 | -2.06764 | 20.16356 | 39919 ft | 483 kts | 243° |
| 2026-04-28 19:15 | -2.09718 | 20.10313 | 39912 ft | 484 kts | 243° |
| 2026-04-28 19:15 | -2.12168 | 20.05294 | 39915 ft | 483 kts | 243° |
| 2026-04-28 19:16 | -2.15613 | 19.98238 | 39916 ft | 483 kts | 243° |
| 2026-04-28 19:16 | -2.18561 | 19.92203 | 39915 ft | 483 kts | 243° |
| 2026-04-28 19:17 | -2.21506 | 19.86168 | 39917 ft | 483 kts | 243° |
| 2026-04-28 19:17 | -2.24476 | 19.80150 | 39916 ft | 483 kts | 243° |
| 2026-04-28 19:18 | -2.27456 | 19.74133 | 39916 ft | 483 kts | 243° |
| 2026-04-28 19:18 | -2.30433 | 19.68119 | 39912 ft | 483 kts | 243° |
| 2026-04-28 19:19 | -2.33404 | 19.62103 | 39904 ft | 482 kts | 243° |
| 2026-04-28 19:19 | -2.36371 | 19.56095 | 39907 ft | 482 kts | 243° |
| 2026-04-28 19:20 | -2.39344 | 19.50085 | 39907 ft | 482 kts | 243° |
| 2026-04-28 19:20 | -2.42314 | 19.44078 | 39911 ft | 482 kts | 243° |
| 2026-04-28 19:21 | -2.45281 | 19.38072 | 39924 ft | 487 kts | 243° |
| 2026-04-28 19:21 | -2.48288 | 19.31983 | 39924 ft | 489 kts | 243° |
| 2026-04-28 19:22 | -2.50813 | 19.26867 | 39918 ft | 490 kts | 243° |
| 2026-04-28 19:22 | -2.54323 | 19.19757 | 39917 ft | 490 kts | 243° |
| 2026-04-28 19:23 | -2.57341 | 19.13642 | 39913 ft | 490 kts | 243° |
| 2026-04-28 19:23 | -2.60354 | 19.07533 | 39915 ft | 490 kts | 243° |
| 2026-04-28 19:24 | -2.63368 | 19.01427 | 39914 ft | 489 kts | 243° |
| 2026-04-28 19:24 | -2.66368 | 18.95349 | 39914 ft | 486 kts | 243° |
| 2026-04-28 19:25 | -2.67847 | 18.92349 | 39959 ft | 473 kts | 243° |
| 2026-04-28 19:25 | -2.69277 | 18.89445 | 39888 ft | 461 kts | 243° |
| 2026-04-28 19:25 | -2.72113 | 18.83698 | 39894 ft | 463 kts | 243° |
| 2026-04-28 19:26 | -2.74987 | 18.77883 | 39922 ft | 470 kts | 243° |
| 2026-04-28 19:26 | -2.77912 | 18.71979 | 39922 ft | 477 kts | 243° |
| 2026-04-28 19:27 | -2.80877 | 18.65993 | 39916 ft | 483 kts | 243° |
| 2026-04-28 19:27 | -2.83870 | 18.59945 | 39915 ft | 487 kts | 243° |
| 2026-04-28 19:28 | -2.86876 | 18.53864 | 39912 ft | 488 kts | 243° |
| 2026-04-28 19:28 | -2.89887 | 18.47775 | 39905 ft | 489 kts | 243° |
| 2026-04-28 19:29 | -2.92393 | 18.42710 | 39907 ft | 489 kts | 243° |
| 2026-04-28 19:29 | -2.95910 | 18.35593 | 39901 ft | 488 kts | 243° |
| 2026-04-28 19:30 | -2.98915 | 18.29519 | 39907 ft | 487 kts | 243° |
| 2026-04-28 19:30 | -3.01916 | 18.23453 | 39905 ft | 486 kts | 243° |
| 2026-04-28 19:31 | -3.04891 | 18.17434 | 39906 ft | 485 kts | 243° |
| 2026-04-28 19:31 | -3.07877 | 18.11390 | 39903 ft | 484 kts | 243° |
| 2026-04-28 19:32 | -3.10859 | 18.05356 | 39909 ft | 484 kts | 243° |
| 2026-04-28 19:32 | -3.13843 | 17.99312 | 39908 ft | 484 kts | 243° |
| 2026-04-28 19:33 | -3.16818 | 17.93287 | 39906 ft | 483 kts | 243° |
| 2026-04-28 19:33 | -3.19795 | 17.87261 | 39910 ft | 483 kts | 243° |
| 2026-04-28 19:34 | -3.22766 | 17.81245 | 39906 ft | 482 kts | 243° |
| 2026-04-28 19:34 | -3.25735 | 17.75231 | 39908 ft | 482 kts | 243° |
| 2026-04-28 19:35 | -3.28703 | 17.69215 | 39908 ft | 482 kts | 243° |
| 2026-04-28 19:35 | -3.31671 | 17.63201 | 39907 ft | 482 kts | 243° |
| 2026-04-28 19:36 | -3.34637 | 17.57186 | 39910 ft | 482 kts | 244° |
| 2026-04-28 19:36 | -3.37603 | 17.51168 | 39908 ft | 482 kts | 243° |
| 2026-04-28 19:37 | -3.40302 | 17.46293 | 39901 ft | 482 kts | 233° |
| 2026-04-28 19:37 | -3.43214 | 17.42903 | 39908 ft | 480 kts | 221° |
| 2026-04-28 19:37 | -3.45703 | 17.40664 | 39916 ft | 480 kts | 220° |
| 2026-04-28 19:38 | -3.50709 | 17.36304 | 39903 ft | 481 kts | 220° |
| 2026-04-28 19:38 | -3.55737 | 17.31888 | 39909 ft | 481 kts | 220° |
| 2026-04-28 19:39 | -3.60734 | 17.27436 | 39906 ft | 481 kts | 221° |
| 2026-04-28 19:39 | -3.65719 | 17.22967 | 39905 ft | 481 kts | 221° |
| 2026-04-28 19:40 | -3.70707 | 17.18500 | 39910 ft | 481 kts | 221° |
| 2026-04-28 19:40 | -3.73206 | 17.16263 | 39526 ft | 483 kts | 221° |
| 2026-04-28 19:40 | -3.75696 | 17.14034 | 38989 ft | 478 kts | 221° |
| 2026-04-28 19:41 | -3.78181 | 17.11810 | 38302 ft | 478 kts | 221° |
| 2026-04-28 19:41 | -3.80658 | 17.09591 | 37655 ft | 477 kts | 221° |
| 2026-04-28 19:41 | -3.83129 | 17.07378 | 36987 ft | 477 kts | 221° |
| 2026-04-28 19:41 | -3.85595 | 17.05169 | 36312 ft | 476 kts | 221° |
| 2026-04-28 19:42 | -3.88062 | 17.02960 | 35588 ft | 476 kts | 221° |
| 2026-04-28 19:42 | -3.90535 | 17.00745 | 34803 ft | 477 kts | 220° |
| 2026-04-28 19:42 | -3.93013 | 16.98525 | 34007 ft | 479 kts | 220° |
| 2026-04-28 19:42 | -3.94657 | 16.97052 | 33469 ft | 480 kts | 220° |
| 2026-04-28 19:43 | -3.97997 | 16.94060 | 32327 ft | 482 kts | 221° |
| 2026-04-28 19:43 | -4.00502 | 16.91815 | 31438 ft | 484 kts | 221° |
| 2026-04-28 19:43 | -4.03015 | 16.89563 | 30501 ft | 486 kts | 221° |
| 2026-04-28 19:43 | -4.05537 | 16.87302 | 29518 ft | 488 kts | 221° |
| 2026-04-28 19:44 | -4.08068 | 16.85033 | 28459 ft | 490 kts | 222° |
| 2026-04-28 19:44 | -4.10610 | 16.82754 | 27502 ft | 490 kts | 222° |
| 2026-04-28 19:44 | -4.13131 | 16.80493 | 26748 ft | 484 kts | 222° |
| 2026-04-28 19:44 | -4.15624 | 16.78257 | 25977 ft | 478 kts | 222° |
| 2026-04-28 19:45 | -4.18090 | 16.76047 | 25218 ft | 473 kts | 222° |
| 2026-04-28 19:45 | -4.20388 | 16.73730 | 24453 ft | 467 kts | 233° |
| 2026-04-28 19:45 | -4.22065 | 16.70984 | 23786 ft | 459 kts | 246° |
| 2026-04-28 19:45 | -4.23098 | 16.68028 | 23492 ft | 442 kts | 256° |
| 2026-04-28 19:46 | -4.23572 | 16.65006 | 22778 ft | 437 kts | 264° |
| 2026-04-28 19:46 | -4.23895 | 16.62038 | 22063 ft | 433 kts | 264° |
| 2026-04-28 19:46 | -4.24111 | 16.60022 | 21584 ft | 430 kts | 264° |
| 2026-04-28 19:46 | -4.24542 | 16.56100 | 20633 ft | 425 kts | 263° |
| 2026-04-28 19:47 | -4.24874 | 16.53179 | 19925 ft | 420 kts | 263° |
| 2026-04-28 19:47 | -4.25211 | 16.50284 | 19218 ft | 417 kts | 263° |
| 2026-04-28 19:47 | -4.25551 | 16.47415 | 18517 ft | 413 kts | 263° |
| 2026-04-28 19:47 | -4.25890 | 16.44572 | 17827 ft | 409 kts | 263° |
| 2026-04-28 19:48 | -4.26228 | 16.41753 | 17135 ft | 405 kts | 262° |
| 2026-04-28 19:48 | -4.26454 | 16.39864 | 16674 ft | 403 kts | 263° |
| 2026-04-28 19:48 | -4.26788 | 16.37088 | 15986 ft | 400 kts | 263° |
| 2026-04-28 19:48 | -4.27118 | 16.34333 | 15301 ft | 397 kts | 263° |
| 2026-04-28 19:49 | -4.27445 | 16.31598 | 14632 ft | 393 kts | 263° |
| 2026-04-28 19:49 | -4.27764 | 16.28932 | 13957 ft | 389 kts | 263° |
| 2026-04-28 19:49 | -4.28094 | 16.26166 | 13724 ft | 413 kts | 263° |
| 2026-04-28 19:49 | -4.28440 | 16.23273 | 13690 ft | 416 kts | 263° |
| 2026-04-28 19:50 | -4.29120 | 16.17620 | 13600 ft | 403 kts | 263° |
| 2026-04-28 19:50 | -4.29196 | 16.16983 | 13592 ft | 402 kts | 263° |
| 2026-04-28 19:50 | -4.29484 | 16.14581 | 13621 ft | 385 kts | 263° |
| 2026-04-28 19:51 | -4.29794 | 16.11979 | 13558 ft | 369 kts | 263° |
| 2026-04-28 19:51 | -4.30091 | 16.09472 | 13472 ft | 356 kts | 263° |
| 2026-04-28 19:51 | -4.30379 | 16.07046 | 13397 ft | 344 kts | 263° |
| 2026-04-28 19:51 | -4.30653 | 16.04744 | 13259 ft | 322 kts | 263° |
| 2026-04-28 19:52 | -4.30914 | 16.02562 | 12874 ft | 310 kts | 263° |
| 2026-04-28 19:52 | -4.31165 | 16.00454 | 12513 ft | 300 kts | 263° |
| 2026-04-28 19:52 | -4.31408 | 15.98408 | 12103 ft | 293 kts | 263° |
| 2026-04-28 19:52 | -4.31648 | 15.96391 | 11593 ft | 290 kts | 263° |
| 2026-04-28 19:53 | -4.31887 | 15.94393 | 11075 ft | 288 kts | 263° |
| 2026-04-28 19:53 | -4.32123 | 15.92408 | 10589 ft | 285 kts | 263° |
| 2026-04-28 19:53 | -4.32357 | 15.90455 | 10097 ft | 282 kts | 264° |
| 2026-04-28 19:53 | -4.32587 | 15.88501 | 9540 ft | 283 kts | 264° |
| 2026-04-28 19:54 | -4.32809 | 15.86544 | 9021 ft | 283 kts | 266° |
| 2026-04-28 19:54 | -4.33040 | 15.84576 | 8406 ft | 285 kts | 264° |
| 2026-04-28 19:54 | -4.33282 | 15.82590 | 7789 ft | 288 kts | 264° |
| 2026-04-28 19:54 | -4.33519 | 15.80613 | 7310 ft | 283 kts | 264° |
| 2026-04-28 19:55 | -4.33756 | 15.78649 | 6770 ft | 286 kts | 264° |
| 2026-04-28 19:55 | -4.33992 | 15.76678 | 6480 ft | 283 kts | 264° |
| 2026-04-28 19:55 | -4.34223 | 15.74734 | 6209 ft | 280 kts | 264° |
| 2026-04-28 19:55 | -4.34454 | 15.72804 | 5907 ft | 279 kts | 264° |
| 2026-04-28 19:56 | -4.34680 | 15.70885 | 5684 ft | 274 kts | 264° |
| 2026-04-28 19:56 | -4.34900 | 15.69048 | 5617 ft | 264 kts | 264° |
| 2026-04-28 19:56 | -4.35113 | 15.67248 | 5505 ft | 255 kts | 264° |
| 2026-04-28 19:56 | -4.35253 | 15.65504 | 5294 ft | 249 kts | 272° |
| 2026-04-28 19:57 | -4.34709 | 15.63910 | 5079 ft | 240 kts | 309° |
| 2026-04-28 19:57 | -4.33581 | 15.62725 | 4813 ft | 232 kts | 319° |
| 2026-04-28 19:57 | -4.32399 | 15.61653 | 4459 ft | 226 kts | 320° |
| 2026-04-28 19:57 | -4.31250 | 15.60614 | 4148 ft | 221 kts | 319° |
| 2026-04-28 19:58 | -4.30144 | 15.59547 | 3862 ft | 222 kts | 308° |
| 2026-04-28 19:58 | -4.29683 | 15.58086 | 3554 ft | 225 kts | 266° |
| 2026-04-28 19:58 | -4.30285 | 15.56695 | 3304 ft | 216 kts | 229° |
| 2026-04-28 19:58 | -4.31224 | 15.55568 | 3098 ft | 205 kts | 233° |
| 2026-04-28 19:59 | -4.32038 | 15.54497 | 3006 ft | 182 kts | 231° |
| 2026-04-28 19:59 | -4.32765 | 15.53494 | 2819 ft | 174 kts | 236° |
| 2026-04-28 19:59 | -4.33412 | 15.52504 | 2611 ft | 167 kts | 237° |
| 2026-04-28 19:59 | -4.34022 | 15.51553 | 2383 ft | 155 kts | 237° |
| 2026-04-28 20:00 | -4.34586 | 15.50670 | 2173 ft | 146 kts | 237° |
| 2026-04-28 20:00 | -4.35134 | 15.49814 | 1991 ft | 146 kts | 237° |
| 2026-04-28 20:00 | -4.35685 | 15.48952 | 1794 ft | 147 kts | 237° |
| 2026-04-28 20:00 | -4.36233 | 15.48088 | 1605 ft | 147 kts | 238° |
| 2026-04-28 20:01 | -4.36783 | 15.47229 | 1411 ft | 146 kts | 237° |
| 2026-04-28 20:01 | -4.37326 | 15.46380 | 1258 ft | 143 kts | 237° |
| 2026-04-28 20:01 | -4.37857 | 15.45559 | 1138 ft | 140 kts | 237° |
| 2026-04-28 20:01 | -4.38383 | 15.44750 | 1028 ft | 132 kts | 237° |
| 2026-04-28 20:02 | -4.38810 | 15.44087 | 1017 ft | 85 kts | 238° |
| 2026-04-28 20:02 | -4.39062 | 15.43697 | 1015 ft | 60 kts | 237° |
| 2026-04-28 20:02 | -4.39277 | 15.43365 | 1015 ft | 54 kts | 237° |
| 2026-04-28 20:02 | -4.39472 | 15.43066 | 1011 ft | 49 kts | 237° |
| 2026-04-28 20:03 | -4.39654 | 15.42839 | 1008 ft | 27 kts | 213° |
| 2026-04-28 20:03 | -4.39641 | 15.42784 | 1008 ft | 8 kts | 47° |
| 2026-04-28 20:03 | -4.39590 | 15.42882 | 1008 ft | 31 kts | 60° |
| 2026-04-28 20:03 | -4.39452 | 15.43097 | 1011 ft | 38 kts | 57° |
| 2026-04-28 20:04 | -4.39313 | 15.43312 | 1015 ft | 35 kts | 57° |
| 2026-04-28 20:04 | -4.39184 | 15.43510 | 1015 ft | 33 kts | 57° |
| 2026-04-28 20:04 | -4.39067 | 15.43693 | 1015 ft | 30 kts | 57° |
| 2026-04-28 20:04 | -4.38955 | 15.43864 | 1015 ft | 28 kts | 57° |
| 2026-04-28 20:05 | -4.38859 | 15.44019 | 1016 ft | 18 kts | 70° |
| 2026-04-28 20:05 | -4.38879 | 15.44112 | 1017 ft | 14 kts | 141° |
| 2026-04-28 20:05 | -4.38949 | 15.44155 | 1018 ft | 6 kts | 146° |
| 2026-04-28 20:05 | -4.38960 | 15.44162 | 1018 ft | 1 kts | 146° |
| 2026-04-28 20:06 | -4.38966 | 15.44167 | 1018 ft | 2 kts | 146° |
| 2026-04-28 20:06 | -4.38969 | 15.44187 | 1018 ft | 5 kts | 79° |
| 2026-04-28 20:06 | -4.38936 | 15.44241 | 1018 ft | 13 kts | 56° |
| 2026-04-28 20:06 | -4.38873 | 15.44339 | 1019 ft | 19 kts | 57° |
| 2026-04-28 20:07 | -4.38830 | 15.44412 | 1019 ft | 2 kts | 101° |
| 2026-04-28 20:07 | -4.38840 | 15.44419 | 1019 ft | 3 kts | 146° |
| 2026-04-28 20:07 | -4.38869 | 15.44439 | 1019 ft | 4 kts | 146° |
| 2026-04-28 20:07 | -4.38892 | 15.44454 | 1019 ft | 4 kts | 145° |
| 2026-04-28 20:08 | -4.38901 | 15.44460 | 1019 ft | 0 kts | 145° |